Aérodrome :
LOGIN :

S'inscrire | Disclaimer

   EN    FR    IT 

 










Légende :    VFR   VFR Marginal   IFR   IFR Intensif   IFR Très Intensif
Visi : 
Plafond : 
>= 8 km
>= 3000ft
5 à 8 km
1000 à 3000 ft
1500m à 5 km
500 à 1000 ft
800 à 1500m
200 à 500 ft
< 800m
< 200 ft
Symboles :   Orages  Brouillard  Fortes neiges  Fortes précipitations  Vent > 20 kt
SIGMETs :   Divers  Orages  Givrage  Turbulence  Onde Orograph.  Cendres Volcan.






- Altitude de l'aérodrome : 1411 ft
- Code IATA : ZHI


LSZG - Grenchen

DERNIER METAR :
  • 031920Z AUTO VRB01KT 9999 NSC 15/13 Q1004

METARs EXPIRÉS :
  • 031850Z AUTO 31003KT 9999 NSC 16/13 Q1005
  • 031820Z AUTO 28004KT 9999 -RA BKN/// 16/14 Q1005
  • 031750Z AUTO 24004KT 200V270 9999 NSC 16/14 Q1005 RERA
  • 031720Z AUTO 20002KT 9999 -RA BKN075 15/14 Q1005
  • 031650Z 22011KT 9999 FEW060TCU 16/12 Q1006 NOSIG

TAF TAF LSZG
Valide du 03 à 15h jusqu'au 04 à 00h UTC


031425Z 0315/0324 28006KT 9999 FEW060TCU
PROB30
TEMPO 0315/0321 26015G30KT 4500 TSRA SCT050CB
TEMPO 0315/0324 SHRA
ATIS : +41 32 396 96 33



MET'MAP, la Météo Aéronautique d'un coup d'oeil ! - Copyright ORBIFLY Décembre 2007 - Disclaimer

ORBIFLY MET'MAP TEAM :

Programmation & Développement : Alexandra Zaïnal
Sur une idée originale de : Baudouin d'Aumeries
Assistance à la programmation : Marc-Olivier Méhu
Soutien technique & logistique : Manuel Goepfert

Contact : metmap@orbifly.com




SOURCES & CREDITS :

   NOAA